sensor_id;sensor_type;location;lat;lon;timestamp;P1;durP1;ratioP1;P2;durP2;ratioP2
4762;SDS011;2395;50.738;7.122;2022-07-29T00:01:48;8.43;;;5.70;;
4762;SDS011;2395;50.738;7.122;2022-07-29T00:04:17;12.50;;;7.40;;
4762;SDS011;2395;50.738;7.122;2022-07-29T00:06:45;11.03;;;6.77;;
4762;SDS011;2395;50.738;7.122;2022-07-29T00:09:12;12.03;;;6.03;;
4762;SDS011;2395;50.738;7.122;2022-07-29T00:11:40;8.80;;;4.80;;
4762;SDS011;2395;50.738;7.122;2022-07-29T00:14:07;8.17;;;4.17;;
4762;SDS011;2395;50.738;7.122;2022-07-29T00:16:34;5.83;;;3.70;;
4762;SDS011;2395;50.738;7.122;2022-07-29T00:19:02;5.63;;;3.60;;
4762;SDS011;2395;50.738;7.122;2022-07-29T00:21:29;9.37;;;3.40;;
4762;SDS011;2395;50.738;7.122;2022-07-29T00:23:56;9.50;;;2.90;;
4762;SDS011;2395;50.738;7.122;2022-07-29T00:26:23;5.87;;;3.20;;
4762;SDS011;2395;50.738;7.122;2022-07-29T00:28:54;7.83;;;3.50;;
4762;SDS011;2395;50.738;7.122;2022-07-29T00:31:20;10.63;;;3.90;;
4762;SDS011;2395;50.738;7.122;2022-07-29T00:33:47;6.80;;;4.20;;
4762;SDS011;2395;50.738;7.122;2022-07-29T00:36:14;6.90;;;4.10;;
4762;SDS011;2395;50.738;7.122;2022-07-29T00:38:40;11.97;;;2.90;;
4762;SDS011;2395;50.738;7.122;2022-07-29T00:41:10;5.50;;;2.83;;
4762;SDS011;2395;50.738;7.122;2022-07-29T00:43:37;6.60;;;2.77;;
4762;SDS011;2395;50.738;7.122;2022-07-29T00:46:05;5.30;;;2.70;;
4762;SDS011;2395;50.738;7.122;2022-07-29T00:48:33;4.97;;;2.90;;
4762;SDS011;2395;50.738;7.122;2022-07-29T00:51:01;7.90;;;2.80;;
4762;SDS011;2395;50.738;7.122;2022-07-29T00:53:30;7.73;;;3.23;;
4762;SDS011;2395;50.738;7.122;2022-07-29T00:55:57;6.53;;;2.70;;
4762;SDS011;2395;50.738;7.122;2022-07-29T00:58:24;5.20;;;2.47;;
4762;SDS011;2395;50.738;7.122;2022-07-29T01:00:53;3.37;;;1.90;;
4762;SDS011;2395;50.738;7.122;2022-07-29T01:03:21;4.70;;;2.50;;
4762;SDS011;2395;50.738;7.122;2022-07-29T01:05:49;5.80;;;2.80;;
4762;SDS011;2395;50.738;7.122;2022-07-29T01:08:16;5.80;;;2.70;;
4762;SDS011;2395;50.738;7.122;2022-07-29T01:10:46;4.17;;;3.03;;
4762;SDS011;2395;50.738;7.122;2022-07-29T01:13:15;6.83;;;2.90;;
4762;SDS011;2395;50.738;7.122;2022-07-29T01:15:43;9.33;;;3.17;;
4762;SDS011;2395;50.738;7.122;2022-07-29T01:18:16;6.40;;;2.33;;
4762;SDS011;2395;50.738;7.122;2022-07-29T01:20:55;7.17;;;3.47;;
4762;SDS011;2395;50.738;7.122;2022-07-29T01:26:45;4.40;;;2.70;;
4762;SDS011;2395;50.738;7.122;2022-07-29T01:29:19;6.30;;;2.50;;
4762;SDS011;2395;50.738;7.122;2022-07-29T01:31:54;6.27;;;2.27;;
4762;SDS011;2395;50.738;7.122;2022-07-29T01:34:29;3.77;;;2.30;;
4762;SDS011;2395;50.738;7.122;2022-07-29T01:37:12;6.70;;;2.60;;
4762;SDS011;2395;50.738;7.122;2022-07-29T01:39:49;4.80;;;2.30;;
4762;SDS011;2395;50.738;7.122;2022-07-29T01:42:22;5.43;;;2.47;;
4762;SDS011;2395;50.738;7.122;2022-07-29T01:45:00;5.67;;;3.20;;
4762;SDS011;2395;50.738;7.122;2022-07-29T01:47:38;5.80;;;3.10;;
4762;SDS011;2395;50.738;7.122;2022-07-29T01:50:14;6.30;;;2.93;;
4762;SDS011;2395;50.738;7.122;2022-07-29T01:52:46;5.60;;;2.83;;
4762;SDS011;2395;50.738;7.122;2022-07-29T01:55:20;7.30;;;2.60;;
4762;SDS011;2395;50.738;7.122;2022-07-29T01:57:54;5.10;;;2.73;;
4762;SDS011;2395;50.738;7.122;2022-07-29T02:00:26;4.90;;;2.60;;
4762;SDS011;2395;50.738;7.122;2022-07-29T02:02:56;7.30;;;2.63;;
4762;SDS011;2395;50.738;7.122;2022-07-29T02:05:28;6.00;;;2.90;;
4762;SDS011;2395;50.738;7.122;2022-07-29T02:08:00;4.23;;;2.70;;
4762;SDS011;2395;50.738;7.122;2022-07-29T02:10:31;8.00;;;3.30;;
4762;SDS011;2395;50.738;7.122;2022-07-29T02:13:01;6.80;;;3.10;;
4762;SDS011;2395;50.738;7.122;2022-07-29T02:15:32;5.00;;;2.57;;
4762;SDS011;2395;50.738;7.122;2022-07-29T02:18:05;5.00;;;2.80;;
4762;SDS011;2395;50.738;7.122;2022-07-29T02:20:35;9.63;;;3.13;;
4762;SDS011;2395;50.738;7.122;2022-07-29T02:23:05;6.83;;;2.83;;
4762;SDS011;2395;50.738;7.122;2022-07-29T02:25:36;4.77;;;3.00;;
4762;SDS011;2395;50.738;7.122;2022-07-29T02:28:05;6.63;;;2.90;;
4762;SDS011;2395;50.738;7.122;2022-07-29T02:30:35;5.57;;;2.70;;
4762;SDS011;2395;50.738;7.122;2022-07-29T02:33:06;4.97;;;2.73;;
4762;SDS011;2395;50.738;7.122;2022-07-29T02:35:38;3.17;;;2.70;;
4762;SDS011;2395;50.738;7.122;2022-07-29T02:38:08;5.60;;;3.00;;
4762;SDS011;2395;50.738;7.122;2022-07-29T02:40:56;7.27;;;3.07;;
4762;SDS011;2395;50.738;7.122;2022-07-29T02:43:27;6.10;;;3.20;;
4762;SDS011;2395;50.738;7.122;2022-07-29T02:45:59;4.83;;;3.10;;
4762;SDS011;2395;50.738;7.122;2022-07-29T02:48:32;7.13;;;3.30;;
4762;SDS011;2395;50.738;7.122;2022-07-29T02:51:05;4.10;;;2.67;;
4762;SDS011;2395;50.738;7.122;2022-07-29T02:53:40;6.90;;;3.00;;
4762;SDS011;2395;50.738;7.122;2022-07-29T02:56:12;4.77;;;2.73;;
4762;SDS011;2395;50.738;7.122;2022-07-29T02:58:45;7.17;;;3.23;;
4762;SDS011;2395;50.738;7.122;2022-07-29T03:01:21;5.23;;;2.87;;
4762;SDS011;2395;50.738;7.122;2022-07-29T03:03:50;7.93;;;3.10;;
4762;SDS011;2395;50.738;7.122;2022-07-29T03:06:20;5.17;;;2.90;;
4762;SDS011;2395;50.738;7.122;2022-07-29T03:08:52;5.57;;;2.60;;
4762;SDS011;2395;50.738;7.122;2022-07-29T03:11:20;5.70;;;2.97;;
4762;SDS011;2395;50.738;7.122;2022-07-29T03:13:49;8.70;;;3.37;;
4762;SDS011;2395;50.738;7.122;2022-07-29T03:16:17;5.60;;;2.97;;
4762;SDS011;2395;50.738;7.122;2022-07-29T03:18:50;4.97;;;3.47;;
4762;SDS011;2395;50.738;7.122;2022-07-29T03:21:18;6.10;;;3.10;;
4762;SDS011;2395;50.738;7.122;2022-07-29T03:23:45;7.97;;;3.23;;
4762;SDS011;2395;50.738;7.122;2022-07-29T03:26:13;5.53;;;2.80;;
4762;SDS011;2395;50.738;7.122;2022-07-29T03:28:40;4.27;;;2.70;;
4762;SDS011;2395;50.738;7.122;2022-07-29T03:31:07;4.70;;;3.00;;
4762;SDS011;2395;50.738;7.122;2022-07-29T03:33:35;4.53;;;2.93;;
4762;SDS011;2395;50.738;7.122;2022-07-29T03:36:02;5.03;;;3.00;;
4762;SDS011;2395;50.738;7.122;2022-07-29T03:38:29;6.53;;;3.30;;
4762;SDS011;2395;50.738;7.122;2022-07-29T03:41:00;6.00;;;3.00;;
4762;SDS011;2395;50.738;7.122;2022-07-29T03:43:34;5.80;;;2.70;;
4762;SDS011;2395;50.738;7.122;2022-07-29T03:46:06;8.00;;;3.27;;
4762;SDS011;2395;50.738;7.122;2022-07-29T03:48:38;6.10;;;3.17;;
4762;SDS011;2395;50.738;7.122;2022-07-29T03:51:10;8.00;;;3.20;;
4762;SDS011;2395;50.738;7.122;2022-07-29T03:53:39;7.97;;;3.40;;
4762;SDS011;2395;50.738;7.122;2022-07-29T03:56:06;6.23;;;2.90;;
4762;SDS011;2395;50.738;7.122;2022-07-29T03:58:36;5.47;;;2.23;;
4762;SDS011;2395;50.738;7.122;2022-07-29T04:01:05;8.50;;;2.87;;
4762;SDS011;2395;50.738;7.122;2022-07-29T04:03:33;10.03;;;3.00;;
4762;SDS011;2395;50.738;7.122;2022-07-29T04:06:03;5.50;;;2.63;;
4762;SDS011;2395;50.738;7.122;2022-07-29T04:08:32;5.87;;;2.90;;
4762;SDS011;2395;50.738;7.122;2022-07-29T04:10:59;5.27;;;3.10;;
4762;SDS011;2395;50.738;7.122;2022-07-29T04:13:27;5.60;;;2.60;;
4762;SDS011;2395;50.738;7.122;2022-07-29T04:15:54;9.90;;;3.07;;
4762;SDS011;2395;50.738;7.122;2022-07-29T04:18:22;8.67;;;3.20;;
4762;SDS011;2395;50.738;7.122;2022-07-29T04:20:49;5.87;;;2.83;;
4762;SDS011;2395;50.738;7.122;2022-07-29T04:23:18;7.87;;;3.17;;
4762;SDS011;2395;50.738;7.122;2022-07-29T04:25:45;6.77;;;2.60;;
4762;SDS011;2395;50.738;7.122;2022-07-29T04:28:12;8.73;;;2.53;;
4762;SDS011;2395;50.738;7.122;2022-07-29T04:30:39;6.77;;;3.23;;
4762;SDS011;2395;50.738;7.122;2022-07-29T04:33:06;7.00;;;2.90;;
4762;SDS011;2395;50.738;7.122;2022-07-29T04:35:35;4.80;;;2.80;;
4762;SDS011;2395;50.738;7.122;2022-07-29T04:38:04;7.50;;;3.33;;
4762;SDS011;2395;50.738;7.122;2022-07-29T04:40:33;13.53;;;3.20;;
4762;SDS011;2395;50.738;7.122;2022-07-29T04:43:00;10.73;;;3.43;;
4762;SDS011;2395;50.738;7.122;2022-07-29T04:45:27;9.83;;;2.97;;
4762;SDS011;2395;50.738;7.122;2022-07-29T04:47:55;9.30;;;3.37;;
4762;SDS011;2395;50.738;7.122;2022-07-29T04:50:22;7.20;;;3.50;;
4762;SDS011;2395;50.738;7.122;2022-07-29T04:52:49;9.40;;;3.10;;
4762;SDS011;2395;50.738;7.122;2022-07-29T04:55:16;5.43;;;2.97;;
4762;SDS011;2395;50.738;7.122;2022-07-29T04:57:45;3.73;;;2.73;;
4762;SDS011;2395;50.738;7.122;2022-07-29T05:00:12;7.30;;;3.03;;
4762;SDS011;2395;50.738;7.122;2022-07-29T05:02:40;6.17;;;3.20;;
4762;SDS011;2395;50.738;7.122;2022-07-29T05:05:07;10.27;;;3.40;;
4762;SDS011;2395;50.738;7.122;2022-07-29T05:07:55;9.47;;;3.33;;
4762;SDS011;2395;50.738;7.122;2022-07-29T05:10:22;8.83;;;3.53;;
4762;SDS011;2395;50.738;7.122;2022-07-29T05:12:50;6.63;;;3.33;;
4762;SDS011;2395;50.738;7.122;2022-07-29T05:15:17;13.27;;;3.10;;
4762;SDS011;2395;50.738;7.122;2022-07-29T05:17:45;9.00;;;3.40;;
4762;SDS011;2395;50.738;7.122;2022-07-29T05:20:12;10.63;;;4.27;;
4762;SDS011;2395;50.738;7.122;2022-07-29T05:22:39;8.33;;;3.50;;
4762;SDS011;2395;50.738;7.122;2022-07-29T05:25:06;10.67;;;3.23;;
4762;SDS011;2395;50.738;7.122;2022-07-29T05:27:34;4.93;;;2.73;;
4762;SDS011;2395;50.738;7.122;2022-07-29T05:30:04;5.93;;;3.03;;
4762;SDS011;2395;50.738;7.122;2022-07-29T05:32:32;6.17;;;3.40;;
4762;SDS011;2395;50.738;7.122;2022-07-29T05:34:59;5.83;;;3.30;;
4762;SDS011;2395;50.738;7.122;2022-07-29T05:37:26;14.07;;;3.83;;
4762;SDS011;2395;50.738;7.122;2022-07-29T05:39:53;8.93;;;3.77;;
4762;SDS011;2395;50.738;7.122;2022-07-29T05:42:20;7.40;;;3.17;;
4762;SDS011;2395;50.738;7.122;2022-07-29T05:44:47;4.57;;;2.90;;
4762;SDS011;2395;50.738;7.122;2022-07-29T05:47:16;6.27;;;3.17;;
4762;SDS011;2395;50.738;7.122;2022-07-29T05:49:43;8.00;;;3.40;;
4762;SDS011;2395;50.738;7.122;2022-07-29T05:52:11;9.50;;;3.40;;
4762;SDS011;2395;50.738;7.122;2022-07-29T05:54:39;10.50;;;2.93;;
4762;SDS011;2395;50.738;7.122;2022-07-29T05:57:09;8.53;;;3.60;;
4762;SDS011;2395;50.738;7.122;2022-07-29T05:59:42;6.87;;;3.40;;
4762;SDS011;2395;50.738;7.122;2022-07-29T06:02:09;9.40;;;3.60;;
4762;SDS011;2395;50.738;7.122;2022-07-29T06:04:37;7.07;;;3.80;;
4762;SDS011;2395;50.738;7.122;2022-07-29T06:07:04;8.90;;;4.00;;
4762;SDS011;2395;50.738;7.122;2022-07-29T06:09:32;11.93;;;3.77;;
4762;SDS011;2395;50.738;7.122;2022-07-29T06:11:59;11.63;;;3.43;;
4762;SDS011;2395;50.738;7.122;2022-07-29T06:14:26;6.90;;;3.10;;
4762;SDS011;2395;50.738;7.122;2022-07-29T06:16:54;13.43;;;3.90;;
4762;SDS011;2395;50.738;7.122;2022-07-29T06:19:21;19.13;;;3.97;;
4762;SDS011;2395;50.738;7.122;2022-07-29T06:21:49;12.53;;;3.97;;
4762;SDS011;2395;50.738;7.122;2022-07-29T06:24:16;11.93;;;4.50;;
4762;SDS011;2395;50.738;7.122;2022-07-29T06:26:43;12.97;;;4.30;;
4762;SDS011;2395;50.738;7.122;2022-07-29T06:29:11;8.33;;;3.50;;
4762;SDS011;2395;50.738;7.122;2022-07-29T06:31:38;8.03;;;4.10;;
4762;SDS011;2395;50.738;7.122;2022-07-29T06:34:05;10.50;;;3.17;;
4762;SDS011;2395;50.738;7.122;2022-07-29T06:36:34;8.30;;;3.70;;
4762;SDS011;2395;50.738;7.122;2022-07-29T06:39:04;12.60;;;4.10;;
4762;SDS011;2395;50.738;7.122;2022-07-29T06:41:32;15.40;;;3.80;;
4762;SDS011;2395;50.738;7.122;2022-07-29T06:44:00;12.53;;;3.60;;
4762;SDS011;2395;50.738;7.122;2022-07-29T06:46:27;7.87;;;3.37;;
4762;SDS011;2395;50.738;7.122;2022-07-29T06:48:54;10.70;;;3.60;;
4762;SDS011;2395;50.738;7.122;2022-07-29T06:51:21;12.90;;;3.53;;
4762;SDS011;2395;50.738;7.122;2022-07-29T06:53:49;16.43;;;3.13;;
4762;SDS011;2395;50.738;7.122;2022-07-29T06:56:18;10.83;;;3.03;;
4762;SDS011;2395;50.738;7.122;2022-07-29T06:58:45;8.30;;;3.37;;
4762;SDS011;2395;50.738;7.122;2022-07-29T07:01:12;10.80;;;3.47;;
4762;SDS011;2395;50.738;7.122;2022-07-29T07:03:39;10.63;;;3.20;;
4762;SDS011;2395;50.738;7.122;2022-07-29T07:06:07;6.83;;;2.90;;
4762;SDS011;2395;50.738;7.122;2022-07-29T07:08:34;10.67;;;2.70;;
4762;SDS011;2395;50.738;7.122;2022-07-29T07:11:01;8.90;;;2.90;;
4762;SDS011;2395;50.738;7.122;2022-07-29T07:13:30;7.77;;;2.70;;
4762;SDS011;2395;50.738;7.122;2022-07-29T07:15:59;14.57;;;3.50;;
4762;SDS011;2395;50.738;7.122;2022-07-29T07:18:27;9.73;;;3.07;;
4762;SDS011;2395;50.738;7.122;2022-07-29T07:20:54;12.00;;;2.90;;
4762;SDS011;2395;50.738;7.122;2022-07-29T07:23:21;8.20;;;3.30;;
4762;SDS011;2395;50.738;7.122;2022-07-29T07:25:49;11.47;;;3.30;;
4762;SDS011;2395;50.738;7.122;2022-07-29T07:28:16;10.00;;;2.90;;
4762;SDS011;2395;50.738;7.122;2022-07-29T07:30:44;5.83;;;2.33;;
4762;SDS011;2395;50.738;7.122;2022-07-29T07:33:11;4.88;;;2.70;;
4762;SDS011;2395;50.738;7.122;2022-07-29T07:35:39;10.40;;;3.20;;
4762;SDS011;2395;50.738;7.122;2022-07-29T07:38:06;9.17;;;3.10;;
4762;SDS011;2395;50.738;7.122;2022-07-29T07:40:33;11.33;;;3.70;;
4762;SDS011;2395;50.738;7.122;2022-07-29T07:43:01;6.30;;;2.83;;
4762;SDS011;2395;50.738;7.122;2022-07-29T07:45:28;12.83;;;3.00;;
4762;SDS011;2395;50.738;7.122;2022-07-29T07:47:58;6.97;;;3.20;;
4762;SDS011;2395;50.738;7.122;2022-07-29T07:50:26;11.90;;;3.00;;
4762;SDS011;2395;50.738;7.122;2022-07-29T07:52:54;11.57;;;2.90;;
4762;SDS011;2395;50.738;7.122;2022-07-29T07:55:23;10.07;;;3.03;;
4762;SDS011;2395;50.738;7.122;2022-07-29T07:57:51;7.67;;;2.70;;
4762;SDS011;2395;50.738;7.122;2022-07-29T08:00:18;6.50;;;2.83;;
4762;SDS011;2395;50.738;7.122;2022-07-29T08:02:45;9.60;;;3.40;;
4762;SDS011;2395;50.738;7.122;2022-07-29T08:05:14;6.17;;;2.77;;
4762;SDS011;2395;50.738;7.122;2022-07-29T08:07:43;12.20;;;2.57;;
4762;SDS011;2395;50.738;7.122;2022-07-29T08:10:11;6.17;;;2.73;;
4762;SDS011;2395;50.738;7.122;2022-07-29T08:12:39;7.93;;;2.80;;
4762;SDS011;2395;50.738;7.122;2022-07-29T08:15:06;7.60;;;2.27;;
4762;SDS011;2395;50.738;7.122;2022-07-29T08:17:35;5.30;;;2.53;;
4762;SDS011;2395;50.738;7.122;2022-07-29T08:20:02;10.33;;;2.73;;
4762;SDS011;2395;50.738;7.122;2022-07-29T08:22:32;6.70;;;2.80;;
4762;SDS011;2395;50.738;7.122;2022-07-29T08:24:59;7.77;;;2.50;;
4762;SDS011;2395;50.738;7.122;2022-07-29T08:27:26;7.60;;;2.50;;
4762;SDS011;2395;50.738;7.122;2022-07-29T08:29:55;6.60;;;3.30;;
4762;SDS011;2395;50.738;7.122;2022-07-29T08:32:22;11.50;;;3.00;;
4762;SDS011;2395;50.738;7.122;2022-07-29T08:34:49;8.23;;;3.00;;
4762;SDS011;2395;50.738;7.122;2022-07-29T08:37:16;10.30;;;2.60;;
4762;SDS011;2395;50.738;7.122;2022-07-29T08:39:45;7.00;;;3.07;;
4762;SDS011;2395;50.738;7.122;2022-07-29T08:42:12;9.80;;;3.27;;
4762;SDS011;2395;50.738;7.122;2022-07-29T08:44:40;9.50;;;3.10;;
4762;SDS011;2395;50.738;7.122;2022-07-29T08:47:07;17.37;;;3.67;;
4762;SDS011;2395;50.738;7.122;2022-07-29T08:49:34;11.30;;;3.23;;
4762;SDS011;2395;50.738;7.122;2022-07-29T08:52:01;9.30;;;3.27;;
4762;SDS011;2395;50.738;7.122;2022-07-29T08:54:29;13.30;;;3.60;;
4762;SDS011;2395;50.738;7.122;2022-07-29T08:56:58;5.30;;;2.60;;
4762;SDS011;2395;50.738;7.122;2022-07-29T08:59:26;18.83;;;3.13;;
4762;SDS011;2395;50.738;7.122;2022-07-29T09:01:56;10.53;;;3.30;;
4762;SDS011;2395;50.738;7.122;2022-07-29T09:04:25;10.87;;;2.73;;
4762;SDS011;2395;50.738;7.122;2022-07-29T09:06:58;8.83;;;3.07;;
4762;SDS011;2395;50.738;7.122;2022-07-29T09:09:31;7.60;;;3.10;;
4762;SDS011;2395;50.738;7.122;2022-07-29T09:12:01;9.50;;;3.40;;
4762;SDS011;2395;50.738;7.122;2022-07-29T09:14:29;9.23;;;2.90;;
4762;SDS011;2395;50.738;7.122;2022-07-29T09:16:56;6.97;;;2.73;;
4762;SDS011;2395;50.738;7.122;2022-07-29T09:19:25;9.20;;;3.03;;
4762;SDS011;2395;50.738;7.122;2022-07-29T09:21:56;6.87;;;3.10;;
4762;SDS011;2395;50.738;7.122;2022-07-29T09:24:24;12.97;;;3.20;;
4762;SDS011;2395;50.738;7.122;2022-07-29T09:27:03;6.57;;;2.70;;
4762;SDS011;2395;50.738;7.122;2022-07-29T09:29:37;10.60;;;3.07;;
4762;SDS011;2395;50.738;7.122;2022-07-29T09:32:06;8.30;;;3.90;;
4762;SDS011;2395;50.738;7.122;2022-07-29T09:34:36;10.07;;;5.07;;
4762;SDS011;2395;50.738;7.122;2022-07-29T09:37:03;7.67;;;3.43;;
4762;SDS011;2395;50.738;7.122;2022-07-29T09:39:32;12.73;;;3.13;;
4762;SDS011;2395;50.738;7.122;2022-07-29T09:42:03;10.70;;;2.97;;
4762;SDS011;2395;50.738;7.122;2022-07-29T09:44:42;14.20;;;4.00;;
4762;SDS011;2395;50.738;7.122;2022-07-29T09:47:13;7.07;;;3.10;;
4762;SDS011;2395;50.738;7.122;2022-07-29T09:52:26;6.77;;;2.90;;
4762;SDS011;2395;50.738;7.122;2022-07-29T09:55:03;10.77;;;3.87;;
4762;SDS011;2395;50.738;7.122;2022-07-29T09:57:33;9.17;;;3.33;;
4762;SDS011;2395;50.738;7.122;2022-07-29T10:00:03;8.50;;;3.73;;
4762;SDS011;2395;50.738;7.122;2022-07-29T10:02:33;16.07;;;3.60;;
4762;SDS011;2395;50.738;7.122;2022-07-29T10:05:03;7.93;;;4.70;;
4762;SDS011;2395;50.738;7.122;2022-07-29T10:07:45;9.70;;;2.97;;
4762;SDS011;2395;50.738;7.122;2022-07-29T10:10:21;8.13;;;3.90;;
4762;SDS011;2395;50.738;7.122;2022-07-29T10:12:52;13.43;;;3.73;;
4762;SDS011;2395;50.738;7.122;2022-07-29T10:15:22;8.33;;;3.10;;
4762;SDS011;2395;50.738;7.122;2022-07-29T10:17:52;10.37;;;3.53;;
4762;SDS011;2395;50.738;7.122;2022-07-29T10:20:23;17.10;;;4.27;;
4762;SDS011;2395;50.738;7.122;2022-07-29T10:22:53;10.53;;;4.10;;
4762;SDS011;2395;50.738;7.122;2022-07-29T10:25:22;8.60;;;3.83;;
4762;SDS011;2395;50.738;7.122;2022-07-29T10:27:51;16.30;;;3.80;;
4762;SDS011;2395;50.738;7.122;2022-07-29T10:30:20;12.70;;;3.73;;
4762;SDS011;2395;50.738;7.122;2022-07-29T10:35:54;7.40;;;3.13;;
4762;SDS011;2395;50.738;7.122;2022-07-29T10:38:48;8.93;;;3.23;;
4762;SDS011;2395;50.738;7.122;2022-07-29T10:41:29;17.13;;;5.80;;
4762;SDS011;2395;50.738;7.122;2022-07-29T10:44:16;12.50;;;5.03;;
4762;SDS011;2395;50.738;7.122;2022-07-29T10:46:47;12.63;;;4.93;;
4762;SDS011;2395;50.738;7.122;2022-07-29T10:49:16;9.97;;;3.67;;
4762;SDS011;2395;50.738;7.122;2022-07-29T10:51:59;6.40;;;3.60;;
4762;SDS011;2395;50.738;7.122;2022-07-29T10:54:39;10.53;;;4.90;;
4762;SDS011;2395;50.738;7.122;2022-07-29T10:57:10;8.83;;;3.83;;
4762;SDS011;2395;50.738;7.122;2022-07-29T10:59:40;13.07;;;3.50;;
4762;SDS011;2395;50.738;7.122;2022-07-29T11:05:16;10.23;;;4.00;;
4762;SDS011;2395;50.738;7.122;2022-07-29T11:10:51;10.63;;;3.67;;
4762;SDS011;2395;50.738;7.122;2022-07-29T11:13:54;8.00;;;3.53;;
4762;SDS011;2395;50.738;7.122;2022-07-29T11:16:24;8.20;;;3.60;;
4762;SDS011;2395;50.738;7.122;2022-07-29T11:21:49;8.77;;;3.93;;
4762;SDS011;2395;50.738;7.122;2022-07-29T11:24:18;9.97;;;3.10;;
4762;SDS011;2395;50.738;7.122;2022-07-29T11:27:12;6.63;;;4.70;;
4762;SDS011;2395;50.738;7.122;2022-07-29T11:29:49;9.00;;;3.40;;
4762;SDS011;2395;50.738;7.122;2022-07-29T11:32:23;7.80;;;3.00;;
4762;SDS011;2395;50.738;7.122;2022-07-29T11:35:15;7.30;;;3.53;;
4762;SDS011;2395;50.738;7.122;2022-07-29T11:37:45;13.30;;;3.93;;
4762;SDS011;2395;50.738;7.122;2022-07-29T11:40:16;9.50;;;4.33;;
4762;SDS011;2395;50.738;7.122;2022-07-29T11:42:47;8.90;;;4.13;;
4762;SDS011;2395;50.738;7.122;2022-07-29T11:45:17;10.60;;;4.87;;
4762;SDS011;2395;50.738;7.122;2022-07-29T11:48:16;7.17;;;4.57;;
4762;SDS011;2395;50.738;7.122;2022-07-29T11:50:44;17.03;;;4.30;;
4762;SDS011;2395;50.738;7.122;2022-07-29T11:53:13;11.60;;;4.20;;
4762;SDS011;2395;50.738;7.122;2022-07-29T11:55:41;10.20;;;5.10;;
4762;SDS011;2395;50.738;7.122;2022-07-29T11:58:08;7.20;;;4.17;;
4762;SDS011;2395;50.738;7.122;2022-07-29T12:00:36;13.30;;;4.10;;
4762;SDS011;2395;50.738;7.122;2022-07-29T12:03:05;8.60;;;4.37;;
4762;SDS011;2395;50.738;7.122;2022-07-29T12:05:38;8.77;;;4.30;;
4762;SDS011;2395;50.738;7.122;2022-07-29T12:08:07;10.83;;;3.60;;
4762;SDS011;2395;50.738;7.122;2022-07-29T12:10:37;8.00;;;3.77;;
4762;SDS011;2395;50.738;7.122;2022-07-29T12:13:05;11.83;;;2.90;;
4762;SDS011;2395;50.738;7.122;2022-07-29T12:15:33;5.67;;;3.23;;
4762;SDS011;2395;50.738;7.122;2022-07-29T12:18:09;7.20;;;3.40;;
4762;SDS011;2395;50.738;7.122;2022-07-29T12:20:39;7.10;;;3.83;;
4762;SDS011;2395;50.738;7.122;2022-07-29T12:23:07;13.83;;;4.00;;
4762;SDS011;2395;50.738;7.122;2022-07-29T12:25:36;7.20;;;3.37;;
4762;SDS011;2395;50.738;7.122;2022-07-29T12:28:05;9.60;;;4.50;;
4762;SDS011;2395;50.738;7.122;2022-07-29T12:30:35;7.20;;;3.37;;
4762;SDS011;2395;50.738;7.122;2022-07-29T12:33:15;7.63;;;3.70;;
4762;SDS011;2395;50.738;7.122;2022-07-29T12:35:48;8.30;;;3.70;;
4762;SDS011;2395;50.738;7.122;2022-07-29T12:38:18;7.70;;;3.60;;
4762;SDS011;2395;50.738;7.122;2022-07-29T12:40:46;8.90;;;2.57;;
4762;SDS011;2395;50.738;7.122;2022-07-29T12:43:16;7.33;;;3.20;;
4762;SDS011;2395;50.738;7.122;2022-07-29T12:45:47;11.00;;;3.07;;
4762;SDS011;2395;50.738;7.122;2022-07-29T12:48:16;5.97;;;3.00;;
4762;SDS011;2395;50.738;7.122;2022-07-29T12:51:00;6.83;;;3.00;;
4762;SDS011;2395;50.738;7.122;2022-07-29T12:53:29;6.73;;;3.03;;
4762;SDS011;2395;50.738;7.122;2022-07-29T12:55:57;7.20;;;3.00;;
4762;SDS011;2395;50.738;7.122;2022-07-29T13:02:20;6.50;;;2.90;;
4762;SDS011;2395;50.738;7.122;2022-07-29T13:05:10;7.70;;;3.90;;
4762;SDS011;2395;50.738;7.122;2022-07-29T13:08:17;7.67;;;3.50;;
4762;SDS011;2395;50.738;7.122;2022-07-29T13:10:45;5.93;;;2.70;;
4762;SDS011;2395;50.738;7.122;2022-07-29T13:13:13;8.10;;;3.03;;
4762;SDS011;2395;50.738;7.122;2022-07-29T13:15:42;5.93;;;2.73;;
4762;SDS011;2395;50.738;7.122;2022-07-29T13:18:28;7.07;;;2.93;;
4762;SDS011;2395;50.738;7.122;2022-07-29T13:20:57;7.73;;;3.03;;
4762;SDS011;2395;50.738;7.122;2022-07-29T13:23:38;5.47;;;3.00;;
4762;SDS011;2395;50.738;7.122;2022-07-29T13:26:05;6.13;;;3.27;;
4762;SDS011;2395;50.738;7.122;2022-07-29T13:28:33;5.03;;;2.77;;
4762;SDS011;2395;50.738;7.122;2022-07-29T13:31:00;6.10;;;3.10;;
4762;SDS011;2395;50.738;7.122;2022-07-29T13:33:27;5.10;;;2.63;;
4762;SDS011;2395;50.738;7.122;2022-07-29T13:35:55;8.53;;;3.20;;
4762;SDS011;2395;50.738;7.122;2022-07-29T13:38:22;5.27;;;2.83;;
4762;SDS011;2395;50.738;7.122;2022-07-29T13:40:50;17.93;;;3.53;;
4762;SDS011;2395;50.738;7.122;2022-07-29T13:43:17;7.70;;;3.67;;
4762;SDS011;2395;50.738;7.122;2022-07-29T13:45:44;3.13;;;2.53;;
4762;SDS011;2395;50.738;7.122;2022-07-29T13:48:11;6.50;;;3.40;;
4762;SDS011;2395;50.738;7.122;2022-07-29T13:50:38;7.70;;;2.83;;
4762;SDS011;2395;50.738;7.122;2022-07-29T13:53:05;9.70;;;3.73;;
4762;SDS011;2395;50.738;7.122;2022-07-29T13:55:32;7.47;;;4.20;;
4762;SDS011;2395;50.738;7.122;2022-07-29T13:58:00;6.53;;;3.30;;
4762;SDS011;2395;50.738;7.122;2022-07-29T14:00:27;10.23;;;3.00;;
4762;SDS011;2395;50.738;7.122;2022-07-29T14:02:54;7.00;;;3.13;;
4762;SDS011;2395;50.738;7.122;2022-07-29T14:05:21;5.83;;;2.73;;
4762;SDS011;2395;50.738;7.122;2022-07-29T14:07:48;9.80;;;2.67;;
4762;SDS011;2395;50.738;7.122;2022-07-29T14:10:15;6.00;;;2.70;;
4762;SDS011;2395;50.738;7.122;2022-07-29T14:12:42;6.10;;;2.67;;
4762;SDS011;2395;50.738;7.122;2022-07-29T14:15:10;12.40;;;3.00;;
4762;SDS011;2395;50.738;7.122;2022-07-29T14:17:37;10.07;;;4.73;;
4762;SDS011;2395;50.738;7.122;2022-07-29T14:20:05;9.87;;;3.03;;
4762;SDS011;2395;50.738;7.122;2022-07-29T14:22:32;15.80;;;3.90;;
4762;SDS011;2395;50.738;7.122;2022-07-29T14:24:59;6.63;;;2.70;;
4762;SDS011;2395;50.738;7.122;2022-07-29T14:27:26;6.97;;;2.73;;
4762;SDS011;2395;50.738;7.122;2022-07-29T14:29:53;5.90;;;2.30;;
4762;SDS011;2395;50.738;7.122;2022-07-29T14:32:22;4.23;;;2.63;;
4762;SDS011;2395;50.738;7.122;2022-07-29T14:34:48;6.80;;;2.30;;
4762;SDS011;2395;50.738;7.122;2022-07-29T14:37:15;7.80;;;3.13;;
4762;SDS011;2395;50.738;7.122;2022-07-29T14:39:42;6.37;;;2.70;;
4762;SDS011;2395;50.738;7.122;2022-07-29T14:42:09;6.77;;;2.50;;
4762;SDS011;2395;50.738;7.122;2022-07-29T14:44:38;10.70;;;2.63;;
4762;SDS011;2395;50.738;7.122;2022-07-29T14:47:06;4.40;;;3.00;;
4762;SDS011;2395;50.738;7.122;2022-07-29T14:49:34;7.20;;;3.13;;
4762;SDS011;2395;50.738;7.122;2022-07-29T14:52:02;8.53;;;3.70;;
4762;SDS011;2395;50.738;7.122;2022-07-29T14:54:30;11.00;;;4.50;;
4762;SDS011;2395;50.738;7.122;2022-07-29T14:56:57;10.10;;;3.47;;
4762;SDS011;2395;50.738;7.122;2022-07-29T14:59:24;9.30;;;3.40;;
4762;SDS011;2395;50.738;7.122;2022-07-29T15:01:51;10.63;;;3.87;;
4762;SDS011;2395;50.738;7.122;2022-07-29T15:04:18;8.27;;;3.53;;
4762;SDS011;2395;50.738;7.122;2022-07-29T15:06:47;5.70;;;3.30;;
4762;SDS011;2395;50.738;7.122;2022-07-29T15:09:14;8.73;;;4.00;;
4762;SDS011;2395;50.738;7.122;2022-07-29T15:11:41;6.90;;;3.37;;
4762;SDS011;2395;50.738;7.122;2022-07-29T15:14:08;5.60;;;3.37;;
4762;SDS011;2395;50.738;7.122;2022-07-29T15:16:35;8.80;;;3.47;;
4762;SDS011;2395;50.738;7.122;2022-07-29T15:19:03;8.63;;;3.10;;
4762;SDS011;2395;50.738;7.122;2022-07-29T15:21:31;10.17;;;3.67;;
4762;SDS011;2395;50.738;7.122;2022-07-29T15:23:59;6.90;;;3.30;;
4762;SDS011;2395;50.738;7.122;2022-07-29T15:26:26;6.47;;;3.13;;
4762;SDS011;2395;50.738;7.122;2022-07-29T15:28:53;6.23;;;3.27;;
4762;SDS011;2395;50.738;7.122;2022-07-29T15:31:21;9.13;;;3.70;;
4762;SDS011;2395;50.738;7.122;2022-07-29T15:33:48;5.80;;;3.70;;
4762;SDS011;2395;50.738;7.122;2022-07-29T15:36:15;11.00;;;3.60;;
4762;SDS011;2395;50.738;7.122;2022-07-29T15:38:42;12.10;;;3.53;;
4762;SDS011;2395;50.738;7.122;2022-07-29T15:41:12;7.60;;;3.80;;
4762;SDS011;2395;50.738;7.122;2022-07-29T15:43:40;8.60;;;4.10;;
4762;SDS011;2395;50.738;7.122;2022-07-29T15:46:12;10.37;;;4.20;;
4762;SDS011;2395;50.738;7.122;2022-07-29T15:48:58;8.00;;;4.37;;
4762;SDS011;2395;50.738;7.122;2022-07-29T15:51:26;7.63;;;3.17;;